Accueil
METAR-TAF:

METAR-TAF

Aéroports :

Wittering, Angleterre

latitude: 52-37N, longitude: 000-28W, altitude: 84 m

Observation

Le bulletin a été fait il y a 24 minutes, à 02:50 UTC
Vent 8 kt de sud/sud-ouest
Température 14°C
Humidité 100%
Pression 1018 hPa
Visibilité 10 km ou plus

METAR: EGXT 200250Z AUTO 21008KT 9999 NCD 14/14 Q1018

Heure: 04:14 (03:14 UTC)

Prévision

Le bulletin a été fait il y a 13 heures et 36 minutes, à 13:38 UTC
Prévision valable du 19 à 15 UTC au 19 à 18 UTC
Vent 10 kt de sud-ouest
Visibilité 10 km ou plus
Nuages fragmentés à une hauteur de 3000 ft
Probabilité 40% :
Temporairement
du 19 à 15 UTC au 19 à 18 UTC
Nuages épars à une hauteur de 2400 ft

TAF: EGXT 191338Z 1915/1918 23010KT 9999 BKN030 PROB40 TEMPO 1915/1918 SCT024

Observations et prévisions météorologiques de plus de 4000 aéroports (messages METAR et TAF).

Les stations disponibles sont représentées par des disques jaunes et rouges sur la carte.

Passer la souris dessus pour voir le nom de la station.

Cliquer dessus pour voir les observations et prévisions météorologiques.

Pour changer de carte: cliquez sur les boutons verts avec une croix noire pour zoomer, sur le bouton vert avec un tiret pour effectuer un zoom arrière, ou sur les flèches vertes pour les cartes adjacentes.


METAR-TAF: